createdAt,value
2022-12-12T00:01:21.701Z,18.17
2022-12-12T00:03:48.522Z,17.67
2022-12-12T00:06:15.431Z,17.25
2022-12-12T00:08:42.132Z,18.73
2022-12-12T00:11:09.333Z,16.52
2022-12-12T00:13:37.058Z,17.83
2022-12-12T00:16:08.054Z,18.20
2022-12-12T00:18:37.013Z,16.83
2022-12-12T00:21:06.532Z,18.13
2022-12-12T00:23:33.310Z,18.15
2022-12-12T00:26:04.103Z,18.48
2022-12-12T00:28:30.655Z,20.23
2022-12-12T00:30:57.930Z,18.02
2022-12-12T00:33:24.562Z,18.42
2022-12-12T00:35:54.699Z,16.92
2022-12-12T00:38:23.338Z,18.38
2022-12-12T00:40:54.905Z,17.25
2022-12-12T00:43:21.600Z,17.48
2022-12-12T00:45:48.076Z,16.63
2022-12-12T00:48:14.535Z,14.95
2022-12-12T00:50:41.071Z,17.23
2022-12-12T00:53:07.518Z,15.82
2022-12-12T00:55:33.963Z,16.02
2022-12-12T00:58:00.540Z,17.67
2022-12-12T01:00:27.744Z,16.20
2022-12-12T01:02:56.821Z,16.13
2022-12-12T01:05:24.161Z,15.63
2022-12-12T01:07:50.685Z,15.52
2022-12-12T01:10:17.428Z,17.08
2022-12-12T01:12:44.005Z,17.38
2022-12-12T01:15:11.904Z,14.95
2022-12-12T01:17:38.865Z,14.82
2022-12-12T01:20:07.429Z,16.63
2022-12-12T01:22:33.993Z,15.25
2022-12-12T01:25:00.815Z,16.25
2022-12-12T01:27:27.881Z,16.90
2022-12-12T01:29:56.037Z,17.20
2022-12-12T01:32:22.747Z,15.02
2022-12-12T01:34:49.304Z,15.60
2022-12-12T01:37:15.798Z,15.48
2022-12-12T01:39:42.286Z,15.88
2022-12-12T01:42:17.368Z,14.50
2022-12-12T01:44:50.202Z,17.15
2022-12-12T01:47:20.150Z,15.45
2022-12-12T01:49:57.833Z,14.50
2022-12-12T01:52:33.137Z,13.98
2022-12-12T01:55:02.605Z,16.33
2022-12-12T01:57:42.783Z,15.93
2022-12-12T02:00:10.947Z,15.52
2022-12-12T02:02:39.358Z,15.85
2022-12-12T02:05:15.743Z,15.57
2022-12-12T02:07:42.362Z,15.05
2022-12-12T02:10:08.983Z,15.68
2022-12-12T02:12:35.485Z,15.40
2022-12-12T02:15:02.421Z,16.73
2022-12-12T02:17:31.874Z,15.57
2022-12-12T02:20:36.880Z,15.43
2022-12-12T02:23:34.171Z,14.73
2022-12-12T02:26:38.494Z,15.20
2022-12-12T02:29:19.370Z,15.10
2022-12-12T02:31:51.957Z,14.55
2022-12-12T02:34:21.359Z,15.20
2022-12-12T02:36:58.690Z,15.02
2022-12-12T02:39:57.586Z,15.40
2022-12-12T02:42:38.331Z,14.85
2022-12-12T02:45:35.726Z,13.73
2022-12-12T02:48:19.980Z,13.55
2022-12-12T02:50:48.894Z,13.80
2022-12-12T02:53:20.209Z,14.02
2022-12-12T02:55:46.852Z,13.63
2022-12-12T02:58:13.998Z,14.68
2022-12-12T03:01:11.093Z,12.82
2022-12-12T03:04:20.774Z,12.90
2022-12-12T03:07:24.008Z,12.90
2022-12-12T03:09:50.630Z,13.50
2022-12-12T03:12:27.657Z,13.35
2022-12-12T03:15:07.340Z,13.77
2022-12-12T03:17:46.558Z,13.15
2022-12-12T03:20:22.794Z,11.68
2022-12-12T03:23:07.455Z,13.77
2022-12-12T03:25:41.350Z,13.98
2022-12-12T03:28:13.587Z,13.30
2022-12-12T03:30:46.643Z,13.63
2022-12-12T03:33:36.962Z,14.35
2022-12-12T03:36:09.799Z,14.05
2022-12-12T03:38:41.270Z,13.43
2022-12-12T03:41:15.720Z,15.32
2022-12-12T03:43:49.972Z,13.20
2022-12-12T03:46:28.945Z,14.00
2022-12-12T03:49:08.504Z,14.50
2022-12-12T03:51:43.586Z,14.77
2022-12-12T03:54:23.373Z,14.60
2022-12-12T03:56:56.454Z,14.23
2022-12-12T03:59:29.239Z,13.80
2022-12-12T04:02:00.418Z,14.18
2022-12-12T04:04:32.980Z,15.25
2022-12-12T04:07:23.627Z,14.25
2022-12-12T04:10:09.162Z,13.20
2022-12-12T04:12:58.594Z,13.35
2022-12-12T04:15:28.130Z,13.25
2022-12-12T04:18:06.660Z,12.63
2022-12-12T04:21:16.252Z,14.13
2022-12-12T04:24:02.154Z,12.60
2022-12-12T04:26:39.494Z,12.02
2022-12-12T04:29:33.574Z,13.32
2022-12-12T04:32:20.274Z,13.23
2022-12-12T04:35:06.996Z,12.23
2022-12-12T04:37:47.507Z,12.98
2022-12-12T04:40:36.279Z,13.85
2022-12-12T04:43:07.050Z,12.10
2022-12-12T04:45:42.194Z,12.90
2022-12-12T04:48:14.692Z,12.40
2022-12-12T04:50:43.977Z,14.35
2022-12-12T04:53:18.365Z,13.35
2022-12-12T04:55:52.459Z,13.70
2022-12-12T05:01:07.723Z,12.77
2022-12-12T05:03:50.128Z,13.02
2022-12-12T05:06:22.384Z,12.32
2022-12-12T05:08:53.250Z,12.70
2022-12-12T05:11:22.118Z,12.35
2022-12-12T05:13:49.810Z,12.63
2022-12-12T05:16:19.101Z,13.02
2022-12-12T05:18:46.546Z,13.23
2022-12-12T05:21:13.354Z,12.88
2022-12-12T05:23:39.942Z,13.52
2022-12-12T05:26:16.329Z,12.35
2022-12-12T05:28:42.759Z,12.57
2022-12-12T05:31:09.262Z,11.75
2022-12-12T05:33:35.806Z,11.63
2022-12-12T05:36:02.302Z,12.65
2022-12-12T05:38:28.790Z,13.05
2022-12-12T05:40:55.326Z,12.75
2022-12-12T05:43:21.806Z,12.40
2022-12-12T05:45:48.367Z,13.30
2022-12-12T05:48:17.305Z,12.88
2022-12-12T05:50:47.632Z,12.88
2022-12-12T05:53:14.114Z,12.48
2022-12-12T05:55:40.768Z,12.77
2022-12-12T05:58:07.431Z,10.85
2022-12-12T06:00:34.161Z,11.38
2022-12-12T06:03:00.593Z,12.10
2022-12-12T06:05:27.112Z,11.93
2022-12-12T06:07:53.614Z,12.77
2022-12-12T06:10:20.148Z,13.07
2022-12-12T06:12:46.645Z,12.60
2022-12-12T06:15:13.367Z,13.13
2022-12-12T06:17:40.028Z,12.65
2022-12-12T06:20:07.618Z,12.88
2022-12-12T06:22:35.036Z,13.48
2022-12-12T06:25:01.921Z,13.35
2022-12-12T06:27:28.393Z,14.48
2022-12-12T06:29:54.865Z,14.20
2022-12-12T06:32:21.340Z,12.43
2022-12-12T06:34:47.803Z,12.70
2022-12-12T06:37:17.323Z,13.27
2022-12-12T06:39:44.290Z,12.52
2022-12-12T06:42:10.740Z,12.70
2022-12-12T06:44:37.166Z,11.82
2022-12-12T06:47:03.649Z,13.52
2022-12-12T06:49:30.092Z,12.63
2022-12-12T06:51:56.688Z,14.10
2022-12-12T06:54:23.640Z,13.63
2022-12-12T06:56:50.076Z,13.18
2022-12-12T06:59:16.691Z,13.85
2022-12-12T07:01:43.339Z,12.70
2022-12-12T07:04:11.498Z,12.32
2022-12-12T07:06:37.955Z,12.40
2022-12-12T07:09:04.516Z,13.77
2022-12-12T07:11:31.438Z,12.20
2022-12-12T07:13:58.296Z,13.18
2022-12-12T07:16:24.857Z,13.88
2022-12-12T07:18:51.377Z,13.93
2022-12-12T07:21:20.332Z,11.50
2022-12-12T07:23:47.096Z,13.18
2022-12-12T07:26:16.400Z,12.73
2022-12-12T07:28:42.975Z,13.88
2022-12-12T07:31:12.348Z,12.73
2022-12-12T07:33:43.550Z,12.88
2022-12-12T07:36:12.038Z,13.40
2022-12-12T07:38:38.532Z,13.23
2022-12-12T07:41:07.324Z,13.23
2022-12-12T07:43:41.572Z,12.10
2022-12-12T07:46:14.021Z,14.60
2022-12-12T07:48:40.528Z,12.68
2022-12-12T07:51:07.020Z,13.00
2022-12-12T07:53:33.675Z,13.02
2022-12-12T07:56:00.196Z,12.10
2022-12-12T07:58:27.038Z,11.77
2022-12-12T08:00:53.684Z,13.80
2022-12-12T08:03:20.146Z,12.57
2022-12-12T08:05:46.607Z,13.65
2022-12-12T08:08:13.151Z,13.45
2022-12-12T08:10:40.450Z,13.48
2022-12-12T08:13:06.942Z,12.52
2022-12-12T08:15:33.944Z,13.27
2022-12-12T08:18:00.637Z,12.85
2022-12-12T08:20:27.133Z,12.43
2022-12-12T08:22:53.584Z,13.85
2022-12-12T08:25:20.626Z,13.68
2022-12-12T08:27:47.110Z,13.27
2022-12-12T08:30:13.764Z,13.60
2022-12-12T08:32:40.222Z,14.45
2022-12-12T08:35:07.312Z,13.77
2022-12-12T08:37:34.139Z,13.02
2022-12-12T08:40:00.669Z,13.93
2022-12-12T08:42:27.226Z,12.65
2022-12-12T08:44:53.762Z,12.57
2022-12-12T08:47:20.283Z,13.45
2022-12-12T08:49:46.867Z,12.73
2022-12-12T08:52:13.349Z,12.13
2022-12-12T08:54:40.053Z,13.45
2022-12-12T08:57:06.645Z,13.82
2022-12-12T08:59:33.136Z,12.73
2022-12-12T09:01:59.802Z,12.00
2022-12-12T09:04:26.383Z,13.70
2022-12-12T09:06:53.133Z,13.32
2022-12-12T09:09:19.600Z,13.40
2022-12-12T09:11:46.076Z,12.82
2022-12-12T09:14:12.648Z,14.75
2022-12-12T09:16:39.165Z,13.82
2022-12-12T09:19:05.714Z,13.25
2022-12-12T09:21:32.569Z,13.20
2022-12-12T09:23:59.270Z,13.85
2022-12-12T09:26:25.893Z,13.60
2022-12-12T09:28:52.358Z,14.75
2022-12-12T09:31:19.215Z,13.57
2022-12-12T09:33:45.814Z,14.43
2022-12-12T09:36:13.855Z,15.70
2022-12-12T09:38:41.265Z,13.75
2022-12-12T09:41:24.466Z,14.60
2022-12-12T09:44:06.280Z,15.07
2022-12-12T09:46:50.576Z,14.98
2022-12-12T09:49:28.300Z,14.98
2022-12-12T09:51:57.440Z,13.55
2022-12-12T09:54:26.853Z,15.68
2022-12-12T09:57:06.174Z,15.60
2022-12-12T09:59:55.431Z,14.95
2022-12-12T10:02:39.907Z,15.68
2022-12-12T10:05:35.920Z,14.57
2022-12-12T10:08:15.180Z,15.68
2022-12-12T10:10:44.953Z,15.77
2022-12-12T10:13:21.339Z,15.77
2022-12-12T10:15:52.200Z,15.25
2022-12-12T10:18:41.530Z,14.10
2022-12-12T10:21:33.889Z,16.13
2022-12-12T10:24:07.685Z,15.23
2022-12-12T10:26:34.109Z,15.73
2022-12-12T10:29:13.184Z,16.38
2022-12-12T10:32:03.816Z,15.00
2022-12-12T10:34:45.664Z,15.98
2022-12-12T10:37:42.771Z,15.70
2022-12-12T10:40:39.722Z,14.82
2022-12-12T10:43:23.009Z,15.77
2022-12-12T10:45:49.533Z,11.90
2022-12-12T10:48:16.018Z,15.52
2022-12-12T10:50:50.266Z,16.08
2022-12-12T10:53:16.809Z,15.10
2022-12-12T10:55:48.322Z,15.27
2022-12-12T10:58:17.094Z,15.98
2022-12-12T11:00:46.132Z,16.20
2022-12-12T11:03:36.998Z,16.42
2022-12-12T11:06:07.485Z,16.55
2022-12-12T11:08:36.981Z,16.60
2022-12-12T11:11:06.186Z,16.25
2022-12-12T11:13:44.001Z,17.00
2022-12-12T11:16:39.498Z,16.73
2022-12-12T11:19:20.819Z,16.60
2022-12-12T11:21:47.814Z,17.00
2022-12-12T11:24:23.782Z,16.83
2022-12-12T11:26:59.484Z,16.02
2022-12-12T11:29:44.308Z,16.17
2022-12-12T11:32:13.701Z,17.75
2022-12-12T11:34:46.046Z,17.23
2022-12-12T11:37:23.048Z,17.63
2022-12-12T11:39:52.279Z,14.98
2022-12-12T11:42:34.512Z,15.65
2022-12-12T11:45:21.316Z,17.52
2022-12-12T11:47:48.412Z,14.10
2022-12-12T11:50:19.641Z,12.77
2022-12-12T11:52:46.725Z,13.35
2022-12-12T11:55:16.265Z,13.48
2022-12-12T11:58:25.706Z,13.63
2022-12-12T12:01:01.594Z,13.27
2022-12-12T12:04:16.206Z,12.75
2022-12-12T12:09:52.357Z,10.82
2022-12-12T12:12:36.803Z,12.75
2022-12-12T12:15:18.241Z,13.07
2022-12-12T12:17:47.640Z,13.60
2022-12-12T12:20:40.239Z,13.63
2022-12-12T12:23:28.655Z,11.43
2022-12-12T12:26:07.047Z,13.13
2022-12-12T12:29:06.517Z,13.00
2022-12-12T12:31:49.445Z,13.65
2022-12-12T12:34:40.555Z,13.90
2022-12-12T12:37:17.481Z,11.98
2022-12-12T12:39:53.875Z,13.13
2022-12-12T12:42:29.458Z,13.55
2022-12-12T12:45:06.758Z,12.30
2022-12-12T12:47:47.712Z,13.50
2022-12-12T12:50:40.278Z,12.77
2022-12-12T12:53:09.740Z,13.27
2022-12-12T12:55:44.561Z,12.55
2022-12-12T12:58:20.093Z,13.93
2022-12-12T13:01:07.563Z,12.70
2022-12-12T13:03:55.203Z,12.85
2022-12-12T13:06:33.978Z,13.60
2022-12-12T13:09:15.615Z,13.30
2022-12-12T13:11:47.192Z,13.75
2022-12-12T13:14:26.981Z,12.60
2022-12-12T13:16:58.488Z,12.65
2022-12-12T13:19:35.617Z,13.95
2022-12-12T13:22:09.176Z,13.35
2022-12-12T13:27:22.438Z,12.13
2022-12-12T13:30:00.063Z,11.93
2022-12-12T13:32:29.504Z,11.93
2022-12-12T13:35:00.823Z,12.90
2022-12-12T13:37:30.271Z,12.18
2022-12-12T13:40:04.729Z,11.82
2022-12-12T13:43:07.198Z,13.18
2022-12-12T13:45:43.028Z,13.45
2022-12-12T13:48:29.556Z,14.32
2022-12-12T13:51:36.159Z,12.18
2022-12-12T13:54:13.348Z,13.32
2022-12-12T13:56:46.094Z,12.55
2022-12-12T13:59:27.645Z,13.27
2022-12-12T14:01:59.254Z,13.35
2022-12-12T14:04:43.891Z,12.75
2022-12-12T14:07:23.149Z,14.43
2022-12-12T14:09:54.376Z,12.52
2022-12-12T14:12:31.153Z,13.80
2022-12-12T14:15:00.079Z,12.70
2022-12-12T14:17:29.160Z,14.48
2022-12-12T14:19:58.900Z,13.65
2022-12-12T14:22:37.898Z,13.63
2022-12-12T14:25:17.764Z,13.48
2022-12-12T14:27:50.118Z,14.40
2022-12-12T14:30:25.861Z,14.25
2022-12-12T14:33:13.921Z,13.68
2022-12-12T14:35:51.235Z,12.90
2022-12-12T14:38:47.591Z,12.73
2022-12-12T14:41:32.326Z,13.38
2022-12-12T14:44:36.427Z,13.55
2022-12-12T14:46:49.828Z,15.15
2022-12-12T14:49:17.939Z,13.77
2022-12-12T14:51:46.958Z,13.65
2022-12-12T14:54:19.933Z,13.90
2022-12-12T14:56:58.812Z,13.40
2022-12-12T14:59:29.736Z,13.32
2022-12-12T15:02:01.124Z,13.60
2022-12-12T15:04:39.567Z,12.60
2022-12-12T15:07:21.729Z,12.88
2022-12-12T15:09:49.271Z,13.43
2022-12-12T15:12:22.572Z,14.88
2022-12-12T15:14:49.149Z,13.70
2022-12-12T15:17:17.141Z,13.25
2022-12-12T15:19:58.160Z,12.90
2022-12-12T15:22:29.661Z,13.68
2022-12-12T15:24:59.751Z,12.63
2022-12-12T15:27:41.563Z,12.93
2022-12-12T15:30:33.254Z,13.25
2022-12-12T15:33:01.734Z,12.80
2022-12-12T15:35:28.340Z,12.98
2022-12-12T15:38:02.621Z,13.80
2022-12-12T15:40:30.022Z,13.73
2022-12-12T15:43:00.301Z,14.20
2022-12-12T15:45:39.601Z,13.32
2022-12-12T15:48:12.386Z,13.82
2022-12-12T15:50:41.875Z,12.30
2022-12-12T15:53:25.272Z,13.02
2022-12-12T15:56:03.674Z,12.63
2022-12-12T15:58:34.825Z,12.25
2022-12-12T16:01:05.474Z,12.65
2022-12-12T16:03:32.368Z,12.88
2022-12-12T16:06:17.219Z,12.02
2022-12-12T16:08:46.720Z,13.15
2022-12-12T16:11:41.275Z,12.88
2022-12-12T16:14:32.587Z,11.88
2022-12-12T16:17:19.815Z,11.02
2022-12-12T16:20:10.969Z,12.73
2022-12-12T16:22:44.770Z,11.57
2022-12-12T16:25:11.281Z,12.07
2022-12-12T16:27:37.796Z,12.25
2022-12-12T16:30:05.401Z,12.38
2022-12-12T16:32:31.911Z,12.57
2022-12-12T16:34:58.396Z,12.10
2022-12-12T16:37:24.861Z,11.90
2022-12-12T16:39:51.316Z,12.35
2022-12-12T16:42:20.949Z,12.93
2022-12-12T16:44:47.787Z,12.55
2022-12-12T16:47:22.628Z,12.43
2022-12-12T16:49:49.761Z,13.15
2022-12-12T16:52:19.435Z,12.88
2022-12-12T16:54:52.801Z,12.50
2022-12-12T16:57:19.896Z,12.13
2022-12-12T16:59:46.544Z,13.38
2022-12-12T17:02:21.774Z,12.77
2022-12-12T17:04:49.687Z,12.00
2022-12-12T17:07:16.534Z,12.50
2022-12-12T17:09:44.127Z,13.30
2022-12-12T17:12:12.953Z,12.15
2022-12-12T17:14:39.543Z,12.55
2022-12-12T17:17:06.671Z,11.15
2022-12-12T17:19:33.308Z,12.60
2022-12-12T17:21:59.837Z,12.52
2022-12-12T17:24:26.422Z,11.55
2022-12-12T17:26:52.915Z,13.13
2022-12-12T17:29:19.335Z,12.98
2022-12-12T17:31:46.090Z,11.80
2022-12-12T17:34:12.600Z,12.98
2022-12-12T17:36:39.052Z,12.98
2022-12-12T17:39:05.760Z,12.82
2022-12-12T17:41:32.224Z,12.77
2022-12-12T17:43:59.036Z,12.52
2022-12-12T17:46:27.773Z,12.25
2022-12-12T17:48:56.718Z,13.57
2022-12-12T17:51:24.245Z,13.20
2022-12-12T17:53:52.569Z,12.38
2022-12-12T17:56:24.584Z,13.32
2022-12-12T17:58:51.552Z,12.95
2022-12-12T18:01:20.743Z,12.57
2022-12-12T18:03:48.585Z,12.80
2022-12-12T18:06:15.888Z,13.10
2022-12-12T18:08:43.353Z,13.57
2022-12-12T18:11:12.943Z,12.90
2022-12-12T18:13:40.926Z,13.32
2022-12-12T18:16:09.461Z,12.27
2022-12-12T18:18:36.121Z,12.80
2022-12-12T18:21:07.915Z,12.93
2022-12-12T18:23:34.471Z,13.85
2022-12-12T18:26:17.248Z,12.27
2022-12-12T18:28:50.809Z,12.65
2022-12-12T18:31:17.343Z,12.38
2022-12-12T18:33:43.859Z,13.02
2022-12-12T18:36:14.377Z,13.10
2022-12-12T18:38:47.258Z,12.27
2022-12-12T18:41:15.528Z,11.38
2022-12-12T18:43:42.272Z,13.18
2022-12-12T18:46:14.861Z,11.85
2022-12-12T18:48:43.295Z,12.93
2022-12-12T18:51:12.605Z,12.60
2022-12-12T18:53:41.234Z,13.20
2022-12-12T18:56:09.658Z,12.45
2022-12-12T18:58:36.577Z,11.63
2022-12-12T19:01:05.022Z,13.10
2022-12-12T19:03:31.766Z,12.40
2022-12-12T19:05:58.321Z,12.63
2022-12-12T19:08:24.848Z,13.73
2022-12-12T19:10:51.338Z,13.68
2022-12-12T19:13:17.764Z,13.73
2022-12-12T19:15:44.248Z,11.52
2022-12-12T19:18:10.715Z,13.48
2022-12-12T19:20:37.189Z,13.27
2022-12-12T19:23:03.697Z,13.70
2022-12-12T19:25:30.294Z,14.75
2022-12-12T19:27:58.394Z,13.43
2022-12-12T19:30:28.003Z,13.73
2022-12-12T19:32:55.176Z,13.65
2022-12-12T19:35:22.640Z,14.15
2022-12-12T19:37:49.119Z,13.63
2022-12-12T19:40:16.481Z,12.48
2022-12-12T19:42:43.309Z,12.00
2022-12-12T19:45:10.129Z,11.80
2022-12-12T19:47:36.638Z,11.80
2022-12-12T19:50:03.782Z,12.10
2022-12-12T19:52:30.246Z,12.05
2022-12-12T19:54:56.662Z,12.43
2022-12-12T19:57:26.210Z,11.52
2022-12-12T19:59:53.526Z,12.32
2022-12-12T20:02:20.172Z,11.55
2022-12-12T20:04:46.700Z,12.60
2022-12-12T20:07:13.198Z,14.57
2022-12-12T20:09:39.655Z,14.30
2022-12-12T20:12:06.223Z,11.43
2022-12-12T20:14:35.187Z,10.98
2022-12-12T20:17:02.859Z,12.05
2022-12-12T20:19:29.653Z,12.35
2022-12-12T20:22:01.280Z,12.98
2022-12-12T20:24:29.218Z,12.68
2022-12-12T20:26:56.078Z,12.65
2022-12-12T20:29:23.385Z,11.98
2022-12-12T20:31:50.013Z,12.57
2022-12-12T20:34:18.473Z,15.52
2022-12-12T20:36:45.839Z,13.77
2022-12-12T20:39:19.350Z,13.45
2022-12-12T20:44:13.534Z,14.45
2022-12-12T20:46:42.927Z,13.98
2022-12-12T20:49:13.613Z,15.38
2022-12-12T20:51:57.345Z,18.13
2022-12-12T20:54:26.401Z,13.90
2022-12-12T20:56:53.939Z,15.05
2022-12-12T20:59:20.491Z,14.55
2022-12-12T21:01:47.616Z,14.18
2022-12-12T21:04:14.609Z,14.60
2022-12-12T21:06:48.269Z,14.82
2022-12-12T21:09:22.665Z,15.65
2022-12-12T21:11:49.511Z,14.40
2022-12-12T21:14:15.978Z,14.07
2022-12-12T21:16:42.409Z,15.52
2022-12-12T21:19:11.659Z,15.73
2022-12-12T21:21:39.839Z,15.13
2022-12-12T21:24:06.667Z,14.88
2022-12-12T21:26:34.022Z,15.30
2022-12-12T21:29:01.841Z,15.57
2022-12-12T21:31:38.186Z,13.77
2022-12-12T21:34:06.268Z,14.73
2022-12-12T21:36:33.640Z,15.88
2022-12-12T21:39:01.623Z,13.82
2022-12-12T21:41:28.691Z,14.65
2022-12-12T21:43:56.585Z,12.95
2022-12-12T21:46:24.795Z,14.98
2022-12-12T21:49:10.751Z,14.40
2022-12-12T21:51:37.637Z,14.23
2022-12-12T21:54:05.884Z,14.88
2022-12-12T21:56:32.527Z,14.70
2022-12-12T21:58:59.800Z,16.45
2022-12-12T22:01:26.865Z,14.70
2022-12-12T22:03:53.606Z,13.50
2022-12-12T22:06:25.259Z,13.20
2022-12-12T22:08:53.994Z,13.43
2022-12-12T22:11:33.819Z,13.20
2022-12-12T22:14:08.443Z,12.50
2022-12-12T22:16:35.402Z,10.98
2022-12-12T22:19:05.923Z,13.20
2022-12-12T22:21:33.165Z,12.30
2022-12-12T22:24:00.593Z,13.40
2022-12-12T22:26:35.212Z,13.43
2022-12-12T22:29:05.460Z,13.18
2022-12-12T22:31:35.279Z,12.55
2022-12-12T22:34:05.206Z,14.48
2022-12-12T22:36:34.378Z,14.38
2022-12-12T22:39:01.593Z,12.23
2022-12-12T22:41:29.681Z,13.57
2022-12-12T22:43:58.846Z,12.52
2022-12-12T22:46:26.372Z,12.13
2022-12-12T22:48:55.153Z,12.57
2022-12-12T22:51:33.334Z,12.43
2022-12-12T22:54:02.654Z,11.68
2022-12-12T22:56:29.996Z,12.52
2022-12-12T22:58:56.699Z,13.18
2022-12-12T23:01:24.468Z,12.57
2022-12-12T23:03:51.914Z,13.20
2022-12-12T23:06:19.705Z,14.40
2022-12-12T23:08:57.832Z,13.90
2022-12-12T23:11:26.430Z,12.48
2022-12-12T23:14:03.379Z,12.52
2022-12-12T23:16:35.670Z,13.15
2022-12-12T23:19:04.657Z,12.55
2022-12-12T23:21:31.860Z,13.75
2022-12-12T23:23:58.313Z,12.93
2022-12-12T23:26:29.797Z,13.48
2022-12-12T23:28:57.853Z,13.75
2022-12-12T23:31:29.836Z,13.60
2022-12-12T23:33:59.663Z,13.52
2022-12-12T23:36:27.110Z,12.95
2022-12-12T23:38:58.313Z,12.65
2022-12-12T23:41:25.633Z,13.85
2022-12-12T23:43:52.729Z,13.45
2022-12-12T23:46:28.704Z,12.68
2022-12-12T23:49:17.003Z,12.45
2022-12-12T23:51:46.332Z,12.43
2022-12-12T23:54:15.935Z,13.02
2022-12-12T23:56:43.263Z,12.93
2022-12-12T23:59:15.514Z,13.27
